Bookmark and Share
Track history (hours):
 

Spabunker 51

Last reported at 2014-Apr-16 18:33 UTC. Time now 2014-Apr-16 19:14 UTC.
Position N 36°11' W 005°24'.

Length 84 m; draft 5.8 m.

Type: Ship (hazmat cat A). MMSI: 224322240.

NotesDate/timePositionNaut miles runAvg speedWind from/ knotsBaromVisibWave heightAir tempDewpointWater temp
2014-Apr-16 18:33N 36°11' W 005°24'0 0.0
2014-Apr-16 17:33N 36°11' W 005°24'0 0.4
2014-Apr-16 16:33N 36°11' W 005°23'0 0.0
2014-Apr-16 15:31N 36°11' W 005°23'0 0.0
2014-Apr-16 14:33N 36°11' W 005°23'0 0.0
2014-Apr-16 13:33N 36°11' W 005°23'0 0.0
2014-Apr-16 12:33N 36°11' W 005°23'2 1.5
2014-Apr-16 11:33N 36°10' W 005°25'1 1.4
2014-Apr-16 10:33N 36°09' W 005°26'0 0.0
2014-Apr-16 09:33N 36°09' W 005°26'0 0.0
2014-Apr-16 08:33N 36°09' W 005°26'0 0.0
2014-Apr-16 07:33N 36°09' W 005°26'0 0.0
2014-Apr-16 06:33N 36°09' W 005°26'0 0.0
2014-Apr-16 05:33N 36°09' W 005°26'0 0.0
2014-Apr-16 04:30N 36°09' W 005°26'0 0.0
2014-Apr-16 03:33N 36°09' W 005°26'0 0.0
2014-Apr-16 02:16N 36°09' W 005°26'0 0.0
2014-Apr-16 01:33N 36°09' W 005°26'0 0.5
2014-Apr-16 00:33N 36°09' W 005°26'0 0.0
2014-Apr-15 23:33N 36°09' W 005°26'0 0.0
2014-Apr-15 22:33N 36°09' W 005°26'0 0.0
2014-Apr-15 21:33N 36°09' W 005°26'0 0.0
2014-Apr-15 20:33N 36°09' W 005°26'1 1.2
2014-Apr-15 19:33N 36°08' W 005°25'0 0.2
2014-Apr-15 18:33N 36°08' W 005°25'0 0.0
2014-Apr-15 17:33N 36°08' W 005°25'0 0.1
2014-Apr-15 16:33N 36°08' W 005°25'2 1.7
2014-Apr-15 15:33N 36°10' W 005°26'0 0.0
2014-Apr-15 14:33N 36°10' W 005°26'0 0.0
2014-Apr-15 12:34N 36°10' W 005°26'0 0.0
2014-Apr-15 11:34N 36°10' W 005°26'0 0.0
2014-Apr-15 10:34N 36°10' W 005°26'2 0.6
2014-Apr-15 07:34N 36°08' W 005°25'0 0.0
2014-Apr-15 06:34N 36°08' W 005°25'0 0.0
2014-Apr-15 05:34N 36°08' W 005°25'1 0.5
2014-Apr-15 03:32N 36°09' W 005°26'0 0.0
2014-Apr-15 01:31N 36°09' W 005°26'3 2.5
2014-Apr-15 00:31N 36°11' W 005°24'0 0.0
2014-Apr-14 23:34N 36°11' W 005°24'0 0.0
2014-Apr-14 22:34N 36°11' W 005°24'0 0.0
2014-Apr-14 21:31N 36°11' W 005°24'0 0.0
2014-Apr-14 20:34N 36°11' W 005°24'0 0.0
2014-Apr-14 19:33N 36°11' W 005°24'0 0.0
2014-Apr-14 18:34N 36°11' W 005°24'0 0.0
2014-Apr-14 17:33N 36°11' W 005°24'0 0.0
2014-Apr-14 16:33N 36°11' W 005°24'0 0.0
2014-Apr-14 15:33N 36°11' W 005°24'0 0.0
2014-Apr-14 14:34N 36°11' W 005°24'1 0.9
2014-Apr-14 13:30N 36°10' W 005°24'4 1.8
2014-Apr-14 11:34N 36°06' W 005°25'0 0.1
2014-Apr-14 09:33N 36°06' W 005°25'0 0.0
2014-Apr-14 08:33N 36°06' W 005°25'0 0.0
2014-Apr-14 07:33N 36°06' W 005°25'0 0.0
2014-Apr-14 06:33N 36°06' W 005°25'3 0.3
2014-Apr-13 22:33N 36°09' W 005°26'0 0.0
2014-Apr-13 21:33N 36°09' W 005°26'2 1.8
2014-Apr-13 20:33N 36°07' W 005°25'2 1.7
2014-Apr-13 19:33N 36°09' W 005°26'0 0.0
2014-Apr-13 18:33N 36°09' W 005°26'0 0.0
2014-Apr-13 17:33N 36°09' W 005°26'2 2.5
2014-Apr-13 16:33N 36°06' W 005°24'0 0.3
2014-Apr-13 15:30N 36°06' W 005°24'0 0.1
2014-Apr-13 14:33N 36°06' W 005°24'0 0.1
2014-Apr-13 13:30N 36°06' W 005°24'0 0.0
2014-Apr-13 12:33N 36°06' W 005°24'0 0.0
2014-Apr-13 11:33N 36°06' W 005°24'1 0.8
2014-Apr-13 10:33N 36°06' W 005°25'0 0.0
2014-Apr-13 09:33N 36°06' W 005°25'0 0.0
2014-Apr-13 08:33N 36°05' W 005°25'0 0.0
2014-Apr-13 07:33N 36°05' W 005°25'0 0.0
2014-Apr-13 06:32N 36°05' W 005°25'0 0.1
2014-Apr-13 05:33N 36°05' W 005°25'0 0.0
2014-Apr-13 04:33N 36°05' W 005°25'0 0.1
2014-Apr-13 03:33N 36°05' W 005°25'0 0.2
2014-Apr-13 02:33N 36°06' W 005°25'1 1.0
2014-Apr-13 01:33N 36°07' W 005°25'2 1.9
2014-Apr-13 00:33N 36°08' W 005°26'0 0.0
2014-Apr-12 23:33N 36°08' W 005°26'0 0.0
2014-Apr-12 22:33N 36°08' W 005°26'0 0.0
2014-Apr-12 21:33N 36°08' W 005°26'0 0.0
2014-Apr-12 20:33N 36°08' W 005°26'0 0.0
2014-Apr-12 19:33N 36°08' W 005°26'0 0.0
2014-Apr-12 18:33N 36°08' W 005°26'0 0.0
2014-Apr-12 17:33N 36°08' W 005°26'0 0.0
2014-Apr-12 16:33N 36°08' W 005°26'1 0.5
2014-Apr-12 15:33N 36°08' W 005°25'0 0.0
2014-Apr-12 14:33N 36°08' W 005°25'0 0.0
2014-Apr-12 13:33N 36°08' W 005°25'0 0.0
2014-Apr-12 12:33N 36°08' W 005°25'0 0.0
2014-Apr-12 11:33N 36°08' W 005°25'0 0.0
2014-Apr-12 10:33N 36°08' W 005°25'0 0.0
2014-Apr-12 09:33N 36°08' W 005°25'0 0.0
2014-Apr-12 08:33N 36°08' W 005°25'0 0.0
2014-Apr-12 07:33N 36°08' W 005°25'0 0.0
2014-Apr-12 06:33N 36°08' W 005°25'0 0.0
2014-Apr-12 05:33N 36°08' W 005°25'1 0.8
2014-Apr-12 04:33N 36°09' W 005°26'0 0.0
2014-Apr-12 03:33N 36°09' W 005°26'0 0.0
2014-Apr-12 02:33N 36°09' W 005°26'0 0.0
2014-Apr-12 01:32N 36°09' W 005°26'0 0.0
2014-Apr-12 00:33N 36°09' W 005°26'0 0.0
2014-Apr-11 23:23N 36°09' W 005°26'0 0.0
2014-Apr-11 22:33N 36°09' W 005°26'0 0.0
2014-Apr-11 21:33N 36°09' W 005°26'0 0.0
2014-Apr-11 20:33N 36°09' W 005°26'0 0.0
2014-Apr-11 19:33N 36°09' W 005°26'0 0.0
2014-Apr-11 18:33N 36°09' W 005°26'0 0.0
2014-Apr-11 17:33N 36°09' W 005°26'2 2.4
2014-Apr-11 16:33N 36°10' W 005°23'0 0.0
2014-Apr-11 15:33N 36°10' W 005°23'3 2.5
2014-Apr-11 14:33N 36°08' W 005°25'1 1.2
2014-Apr-11 13:33N 36°07' W 005°25'0 0.0
2014-Apr-11 12:33N 36°07' W 005°25'0 0.0
2014-Apr-11 11:33N 36°07' W 005°25'1 0.8
2014-Apr-11 10:33N 36°06' W 005°24'0 0.1
2014-Apr-11 09:33N 36°06' W 005°24'0 0.0
2014-Apr-11 08:33N 36°06' W 005°24'0 0.0
2014-Apr-11 07:33N 36°06' W 005°24'3 2.8
2014-Apr-11 06:32N 36°09' W 005°26'0 0.0
2014-Apr-11 05:33N 36°09' W 005°26'0 0.0
2014-Apr-11 04:32N 36°09' W 005°26'0 0.0
2014-Apr-11 03:30N 36°09' W 005°26'0 0.0
2014-Apr-11 02:33N 36°09' W 005°26'0 0.0
2014-Apr-11 00:17N 36°09' W 005°26'0 0.0
2014-Apr-10 23:21N 36°09' W 005°26'0 0.0
2014-Apr-10 22:33N 36°09' W 005°26'0 0.0
2014-Apr-10 21:33N 36°09' W 005°26'0 0.0
2014-Apr-10 20:33N 36°09' W 005°26'0 0.0
2014-Apr-10 19:31N 36°09' W 005°26'0 0.0
2014-Apr-10 17:33N 36°09' W 005°26'0 0.0
2014-Apr-10 16:33N 36°09' W 005°26'0 0.0
2014-Apr-10 15:32N 36°09' W 005°26'0 0.0
2014-Apr-10 14:33N 36°09' W 005°26'0 0.4
2014-Apr-10 13:23N 36°09' W 005°26'0 0.0
2014-Apr-10 12:33N 36°09' W 005°26'0 0.0
2014-Apr-10 11:06N 36°09' W 005°26'0 0.0
2014-Apr-10 10:28N 36°09' W 005°26'2 2.7
2014-Apr-10 09:33N 36°11' W 005°24'0 0.0
2014-Apr-10 08:33N 36°11' W 005°24'0 0.0
2014-Apr-10 07:33N 36°11' W 005°24'0 0.0
2014-Apr-10 06:33N 36°11' W 005°24'0 0.0
2014-Apr-10 05:33N 36°11' W 005°24'0 0.0
2014-Apr-10 04:33N 36°11' W 005°24'0 0.0
2014-Apr-10 03:33N 36°11' W 005°24'0 0.0
2014-Apr-10 02:33N 36°11' W 005°24'0 0.0
2014-Apr-10 01:33N 36°11' W 005°24'0 0.0
2014-Apr-10 00:33N 36°11' W 005°24'0 0.0
2014-Apr-09 23:33N 36°11' W 005°24'0 0.0
2014-Apr-09 22:33N 36°11' W 005°24'1 0.5
2014-Apr-09 21:33N 36°11' W 005°23'5 4.9
2014-Apr-09 20:33N 36°06' W 005°24'0 0.1
2014-Apr-09 19:32N 36°06' W 005°25'0 0.1
2014-Apr-09 18:33N 36°06' W 005°25'0 0.0
2014-Apr-09 17:33N 36°06' W 005°25'0 0.0
2014-Apr-09 16:33N 36°06' W 005°25'0 0.4
2014-Apr-09 15:33N 36°05' W 005°25'0 0.3
2014-Apr-09 14:33N 36°05' W 005°25'0 0.0
2014-Apr-09 13:33N 36°05' W 005°25'1 0.6
2014-Apr-09 12:33N 36°06' W 005°25'1 1.1
2014-Apr-09 11:33N 36°07' W 005°25'0 0.1
2014-Apr-09 10:33N 36°07' W 005°25'4 4.0
2014-Apr-09 09:33N 36°10' W 005°24'0 0.1
2014-Apr-09 08:32N 36°10' W 005°24'0 0.0
2014-Apr-09 07:33N 36°10' W 005°24'0 0.1
2014-Apr-09 06:25N 36°10' W 005°24'0 0.1
2014-Apr-09 05:33N 36°10' W 005°23'0 0.0
2014-Apr-09 04:33N 36°10' W 005°23'0 0.1
2014-Apr-09 03:32N 36°10' W 005°23'0 0.1
2014-Apr-09 02:33N 36°10' W 005°24'1 1.3
2014-Apr-09 01:33N 36°09' W 005°25'1 1.5
2014-Apr-09 00:33N 36°08' W 005°26'0 0.0
2014-Apr-08 23:33N 36°08' W 005°26'0 0.0
2014-Apr-08 22:33N 36°08' W 005°26'0 0.1
2014-Apr-08 21:33N 36°08' W 005°26'3 3.2
2014-Apr-08 20:33N 36°05' W 005°24'0 0.0
2014-Apr-08 19:33N 36°05' W 005°24'0 0.1
2014-Apr-08 18:33N 36°05' W 005°24'0 0.0
2014-Apr-08 17:33N 36°05' W 005°24'0 0.0
2014-Apr-08 16:33N 36°05' W 005°24'0 0.0
2014-Apr-08 15:33N 36°05' W 005°24'0 0.0
2014-Apr-08 14:33N 36°05' W 005°24'0 0.0
2014-Apr-08 13:33N 36°05' W 005°24'0 0.0
2014-Apr-08 12:32N 36°05' W 005°24'1 0.6
2014-Apr-08 11:34N 36°05' W 005°25'0 0.0
2014-Apr-08 10:30N 36°05' W 005°25'0 0.0
2014-Apr-08 09:33N 36°05' W 005°25'0 0.0
2014-Apr-08 08:33N 36°05' W 005°25'0 0.1
2014-Apr-08 07:33N 36°05' W 005°25'0 0.0
2014-Apr-08 06:33N 36°05' W 005°25'0 0.0
2014-Apr-08 05:33N 36°05' W 005°25'1 0.7
2014-Apr-08 04:33N 36°06' W 005°25'0 0.0
2014-Apr-08 03:33N 36°06' W 005°25'0 0.0
2014-Apr-08 02:31N 36°06' W 005°25'0 0.0
2014-Apr-08 01:33N 36°06' W 005°25'0 0.0
2014-Apr-08 00:33N 36°06' W 005°25'0 0.1
2014-Apr-07 23:33N 36°06' W 005°25'0 0.1
2014-Apr-07 22:33N 36°06' W 005°25'3 2.7
2014-Apr-07 21:33N 36°08' W 005°26'0 0.0
2014-Apr-07 20:33N 36°08' W 005°26'0 0.0
2014-Apr-07 19:33N 36°08' W 005°26'0 0.0
2014-Apr-07 17:33N 36°08' W 005°26'0 0.0
2014-Apr-07 16:33N 36°08' W 005°26'0 0.0
2014-Apr-07 15:33N 36°08' W 005°26'0 0.0
2014-Apr-07 14:33N 36°08' W 005°26'0 0.3
2014-Apr-07 13:33N 36°09' W 005°26'0 0.0
2014-Apr-07 12:33N 36°09' W 005°26'0 0.0
2014-Apr-07 11:33N 36°09' W 005°26'0 0.0
2014-Apr-06 21:33N 36°09' W 005°26'0 0.0
2014-Apr-06 20:26N 36°09' W 005°26'0 0.0
2014-Apr-06 19:33N 36°09' W 005°26'0 0.0
2014-Apr-06 18:33N 36°09' W 005°26'  

Dump ship's entire track history

sailing weather and tide predictions

Spabunker 51 — ECNA — position and weather